sensor_id;sensor_type;location;lat;lon;timestamp;P1;durP1;ratioP1;P2;durP2;ratioP2
59972;SDS011;55298;-36.624;-64.282;2022-09-27T00:01:45;17.50;;;6.55;;
59972;SDS011;55298;-36.624;-64.282;2022-09-27T00:04:15;17.48;;;6.65;;
59972;SDS011;55298;-36.624;-64.282;2022-09-27T00:06:47;15.20;;;6.70;;
59972;SDS011;55298;-36.624;-64.282;2022-09-27T00:09:15;14.85;;;7.68;;
59972;SDS011;55298;-36.624;-64.282;2022-09-27T00:11:44;16.08;;;6.55;;
59972;SDS011;55298;-36.624;-64.282;2022-09-27T00:14:14;16.58;;;6.43;;
59972;SDS011;55298;-36.624;-64.282;2022-09-27T00:16:44;10.23;;;5.32;;
59972;SDS011;55298;-36.624;-64.282;2022-09-27T00:19:15;10.23;;;5.70;;
59972;SDS011;55298;-36.624;-64.282;2022-09-27T00:21:44;17.00;;;7.60;;
59972;SDS011;55298;-36.624;-64.282;2022-09-27T00:24:15;13.38;;;5.95;;
59972;SDS011;55298;-36.624;-64.282;2022-09-27T00:26:46;26.35;;;8.35;;
59972;SDS011;55298;-36.624;-64.282;2022-09-27T00:29:15;9.60;;;5.80;;
59972;SDS011;55298;-36.624;-64.282;2022-09-27T00:31:45;9.20;;;5.65;;
59972;SDS011;55298;-36.624;-64.282;2022-09-27T00:34:17;10.30;;;6.03;;
59972;SDS011;55298;-36.624;-64.282;2022-09-27T00:36:47;28.63;;;7.65;;
59972;SDS011;55298;-36.624;-64.282;2022-09-27T00:39:16;10.02;;;5.38;;
59972;SDS011;55298;-36.624;-64.282;2022-09-27T00:41:44;7.60;;;5.28;;
59972;SDS011;55298;-36.624;-64.282;2022-09-27T00:47:32;7.38;;;4.55;;
59972;SDS011;55298;-36.624;-64.282;2022-09-27T00:50:34;4.82;;;4.18;;
59972;SDS011;55298;-36.624;-64.282;2022-09-27T00:55:53;5.88;;;5.38;;
59972;SDS011;55298;-36.624;-64.282;2022-09-27T00:58:27;6.32;;;4.20;;
59972;SDS011;55298;-36.624;-64.282;2022-09-27T01:01:04;5.35;;;4.75;;
59972;SDS011;55298;-36.624;-64.282;2022-09-27T01:03:39;7.35;;;4.00;;
59972;SDS011;55298;-36.624;-64.282;2022-09-27T01:06:27;5.20;;;3.58;;
59972;SDS011;55298;-36.624;-64.282;2022-09-27T01:08:56;7.00;;;5.38;;
59972;SDS011;55298;-36.624;-64.282;2022-09-27T01:25:44;11.88;;;5.40;;
59972;SDS011;55298;-36.624;-64.282;2022-09-27T01:28:34;7.07;;;5.68;;
59972;SDS011;55298;-36.624;-64.282;2022-09-27T01:37:14;10.07;;;5.28;;
59972;SDS011;55298;-36.624;-64.282;2022-09-27T01:39:56;6.05;;;5.45;;
59972;SDS011;55298;-36.624;-64.282;2022-09-27T01:42:49;11.50;;;5.72;;
59972;SDS011;55298;-36.624;-64.282;2022-09-27T01:45:35;11.32;;;6.85;;
59972;SDS011;55298;-36.624;-64.282;2022-09-27T01:48:22;20.05;;;15.20;;
59972;SDS011;55298;-36.624;-64.282;2022-09-27T01:50:58;18.17;;;10.27;;
59972;SDS011;55298;-36.624;-64.282;2022-09-27T01:53:36;13.30;;;8.95;;
59972;SDS011;55298;-36.624;-64.282;2022-09-27T01:56:09;11.07;;;7.55;;
59972;SDS011;55298;-36.624;-64.282;2022-09-27T01:58:50;16.48;;;8.15;;
59972;SDS011;55298;-36.624;-64.282;2022-09-27T02:01:28;10.07;;;7.18;;
59972;SDS011;55298;-36.624;-64.282;2022-09-27T02:04:00;11.48;;;6.85;;
59972;SDS011;55298;-36.624;-64.282;2022-09-27T02:06:33;6.10;;;4.97;;
59972;SDS011;55298;-36.624;-64.282;2022-09-27T02:09:07;10.32;;;4.88;;
59972;SDS011;55298;-36.624;-64.282;2022-09-27T02:11:42;6.43;;;4.60;;
59972;SDS011;55298;-36.624;-64.282;2022-09-27T02:14:16;6.03;;;4.15;;
59972;SDS011;55298;-36.624;-64.282;2022-09-27T02:16:59;9.30;;;5.22;;
59972;SDS011;55298;-36.624;-64.282;2022-09-27T02:22:35;12.95;;;5.50;;
59972;SDS011;55298;-36.624;-64.282;2022-09-27T02:25:13;12.18;;;5.32;;
59972;SDS011;55298;-36.624;-64.282;2022-09-27T02:30:37;11.57;;;5.50;;
59972;SDS011;55298;-36.624;-64.282;2022-09-27T02:33:04;11.32;;;5.78;;
59972;SDS011;55298;-36.624;-64.282;2022-09-27T02:35:34;6.95;;;5.22;;
59972;SDS011;55298;-36.624;-64.282;2022-09-27T02:38:02;7.50;;;4.70;;
59972;SDS011;55298;-36.624;-64.282;2022-09-27T02:40:33;7.70;;;5.70;;
59972;SDS011;55298;-36.624;-64.282;2022-09-27T02:43:08;9.10;;;5.75;;
59972;SDS011;55298;-36.624;-64.282;2022-09-27T02:48:27;9.27;;;5.85;;
59972;SDS011;55298;-36.624;-64.282;2022-09-27T02:51:59;7.85;;;5.35;;
59972;SDS011;55298;-36.624;-64.282;2022-09-27T02:54:10;9.70;;;5.22;;
59972;SDS011;55298;-36.624;-64.282;2022-09-27T02:59:42;9.20;;;5.18;;
59972;SDS011;55298;-36.624;-64.282;2022-09-27T03:02:30;13.80;;;5.90;;
59972;SDS011;55298;-36.624;-64.282;2022-09-27T03:05:19;12.10;;;6.18;;
59972;SDS011;55298;-36.624;-64.282;2022-09-27T03:07:54;13.88;;;6.78;;
59972;SDS011;55298;-36.624;-64.282;2022-09-27T03:10:23;16.30;;;8.07;;
59972;SDS011;55298;-36.624;-64.282;2022-09-27T03:12:54;17.30;;;9.00;;
59972;SDS011;55298;-36.624;-64.282;2022-09-27T03:15:23;12.60;;;7.55;;
59972;SDS011;55298;-36.624;-64.282;2022-09-27T03:17:52;10.68;;;7.10;;
59972;SDS011;55298;-36.624;-64.282;2022-09-27T03:20:20;8.80;;;5.95;;
59972;SDS011;55298;-36.624;-64.282;2022-09-27T03:22:49;9.65;;;6.50;;
59972;SDS011;55298;-36.624;-64.282;2022-09-27T03:25:16;6.50;;;5.82;;
59972;SDS011;55298;-36.624;-64.282;2022-09-27T03:27:44;8.30;;;5.18;;
59972;SDS011;55298;-36.624;-64.282;2022-09-27T03:30:12;5.65;;;4.75;;
59972;SDS011;55298;-36.624;-64.282;2022-09-27T03:32:42;6.35;;;4.50;;
59972;SDS011;55298;-36.624;-64.282;2022-09-27T03:35:12;5.03;;;3.95;;
59972;SDS011;55298;-36.624;-64.282;2022-09-27T03:37:40;5.40;;;4.03;;
59972;SDS011;55298;-36.624;-64.282;2022-09-27T03:40:08;5.13;;;4.00;;
59972;SDS011;55298;-36.624;-64.282;2022-09-27T03:42:37;7.32;;;3.60;;
59972;SDS011;55298;-36.624;-64.282;2022-09-27T03:45:07;6.35;;;2.97;;
59972;SDS011;55298;-36.624;-64.282;2022-09-27T03:47:38;3.33;;;3.03;;
59972;SDS011;55298;-36.624;-64.282;2022-09-27T03:50:07;5.53;;;3.60;;
59972;SDS011;55298;-36.624;-64.282;2022-09-27T03:52:37;5.25;;;2.97;;
59972;SDS011;55298;-36.624;-64.282;2022-09-27T03:55:06;3.63;;;3.20;;
59972;SDS011;55298;-36.624;-64.282;2022-09-27T03:57:34;2.70;;;2.53;;
59972;SDS011;55298;-36.624;-64.282;2022-09-27T04:00:03;3.33;;;3.00;;
59972;SDS011;55298;-36.624;-64.282;2022-09-27T04:02:31;3.00;;;2.80;;
59972;SDS011;55298;-36.624;-64.282;2022-09-27T04:04:59;3.13;;;2.92;;
59972;SDS011;55298;-36.624;-64.282;2022-09-27T04:07:27;3.60;;;2.90;;
59972;SDS011;55298;-36.624;-64.282;2022-09-27T04:09:55;3.28;;;3.00;;
59972;SDS011;55298;-36.624;-64.282;2022-09-27T04:12:23;3.53;;;3.22;;
59972;SDS011;55298;-36.624;-64.282;2022-09-27T04:14:51;3.03;;;2.70;;
59972;SDS011;55298;-36.624;-64.282;2022-09-27T04:17:19;4.10;;;3.00;;
59972;SDS011;55298;-36.624;-64.282;2022-09-27T04:19:50;3.13;;;2.90;;
59972;SDS011;55298;-36.624;-64.282;2022-09-27T04:22:19;3.60;;;3.40;;
59972;SDS011;55298;-36.624;-64.282;2022-09-27T04:24:48;2.85;;;2.70;;
59972;SDS011;55298;-36.624;-64.282;2022-09-27T04:27:15;2.85;;;2.58;;
59972;SDS011;55298;-36.624;-64.282;2022-09-27T04:29:43;3.03;;;2.83;;
59972;SDS011;55298;-36.624;-64.282;2022-09-27T04:32:11;3.85;;;2.88;;
59972;SDS011;55298;-36.624;-64.282;2022-09-27T04:34:40;4.47;;;2.80;;
59972;SDS011;55298;-36.624;-64.282;2022-09-27T04:37:17;3.20;;;2.92;;
59972;SDS011;55298;-36.624;-64.282;2022-09-27T04:39:45;4.63;;;3.20;;
59972;SDS011;55298;-36.624;-64.282;2022-09-27T04:42:14;3.67;;;3.10;;
59972;SDS011;55298;-36.624;-64.282;2022-09-27T04:44:42;3.50;;;3.20;;
59972;SDS011;55298;-36.624;-64.282;2022-09-27T04:47:10;6.32;;;3.00;;
59972;SDS011;55298;-36.624;-64.282;2022-09-27T04:49:39;3.63;;;3.03;;
59972;SDS011;55298;-36.624;-64.282;2022-09-27T04:52:07;3.47;;;3.10;;
59972;SDS011;55298;-36.624;-64.282;2022-09-27T04:54:35;4.28;;;2.90;;
59972;SDS011;55298;-36.624;-64.282;2022-09-27T04:57:04;2.88;;;2.70;;
59972;SDS011;55298;-36.624;-64.282;2022-09-27T04:59:31;4.03;;;2.70;;
59972;SDS011;55298;-36.624;-64.282;2022-09-27T05:02:00;2.90;;;2.70;;
59972;SDS011;55298;-36.624;-64.282;2022-09-27T05:04:28;2.80;;;2.60;;
59972;SDS011;55298;-36.624;-64.282;2022-09-27T05:06:56;4.65;;;2.30;;
59972;SDS011;55298;-36.624;-64.282;2022-09-27T05:09:24;2.70;;;2.60;;
59972;SDS011;55298;-36.624;-64.282;2022-09-27T05:11:51;2.70;;;2.40;;
59972;SDS011;55298;-36.624;-64.282;2022-09-27T05:14:20;2.70;;;2.50;;
59972;SDS011;55298;-36.624;-64.282;2022-09-27T05:16:51;4.28;;;3.00;;
59972;SDS011;55298;-36.624;-64.282;2022-09-27T05:19:20;2.90;;;2.70;;
59972;SDS011;55298;-36.624;-64.282;2022-09-27T05:21:49;3.85;;;3.00;;
59972;SDS011;55298;-36.624;-64.282;2022-09-27T05:24:16;2.95;;;2.40;;
59972;SDS011;55298;-36.624;-64.282;2022-09-27T05:26:45;2.95;;;2.85;;
59972;SDS011;55298;-36.624;-64.282;2022-09-27T05:29:13;2.63;;;2.53;;
59972;SDS011;55298;-36.624;-64.282;2022-09-27T05:31:42;2.63;;;2.42;;
59972;SDS011;55298;-36.624;-64.282;2022-09-27T05:34:11;2.67;;;2.58;;
59972;SDS011;55298;-36.624;-64.282;2022-09-27T05:36:39;2.80;;;2.70;;
59972;SDS011;55298;-36.624;-64.282;2022-09-27T05:39:07;2.67;;;2.47;;
59972;SDS011;55298;-36.624;-64.282;2022-09-27T05:41:35;2.78;;;2.63;;
59972;SDS011;55298;-36.624;-64.282;2022-09-27T05:44:05;2.50;;;2.40;;
59972;SDS011;55298;-36.624;-64.282;2022-09-27T05:46:33;2.60;;;2.50;;
59972;SDS011;55298;-36.624;-64.282;2022-09-27T05:49:03;3.13;;;2.80;;
59972;SDS011;55298;-36.624;-64.282;2022-09-27T05:51:31;2.72;;;2.60;;
59972;SDS011;55298;-36.624;-64.282;2022-09-27T05:54:00;2.40;;;2.30;;
59972;SDS011;55298;-36.624;-64.282;2022-09-27T05:56:31;2.70;;;2.58;;
59972;SDS011;55298;-36.624;-64.282;2022-09-27T05:59:00;2.80;;;2.70;;
59972;SDS011;55298;-36.624;-64.282;2022-09-27T06:01:28;3.85;;;2.85;;
59972;SDS011;55298;-36.624;-64.282;2022-09-27T06:03:57;2.55;;;2.38;;
59972;SDS011;55298;-36.624;-64.282;2022-09-27T06:06:25;2.95;;;2.45;;
59972;SDS011;55298;-36.624;-64.282;2022-09-27T06:08:53;2.70;;;2.60;;
59972;SDS011;55298;-36.624;-64.282;2022-09-27T06:11:22;3.03;;;2.88;;
59972;SDS011;55298;-36.624;-64.282;2022-09-27T06:13:52;3.55;;;2.72;;
59972;SDS011;55298;-36.624;-64.282;2022-09-27T06:16:21;3.10;;;3.00;;
59972;SDS011;55298;-36.624;-64.282;2022-09-27T06:18:49;2.97;;;2.78;;
59972;SDS011;55298;-36.624;-64.282;2022-09-27T06:21:18;2.78;;;2.60;;
59972;SDS011;55298;-36.624;-64.282;2022-09-27T06:23:47;3.08;;;2.90;;
59972;SDS011;55298;-36.624;-64.282;2022-09-27T06:26:16;3.10;;;2.85;;
59972;SDS011;55298;-36.624;-64.282;2022-09-27T06:28:46;3.30;;;3.00;;
59972;SDS011;55298;-36.624;-64.282;2022-09-27T06:31:15;2.88;;;2.65;;
59972;SDS011;55298;-36.624;-64.282;2022-09-27T06:33:44;2.88;;;2.78;;
59972;SDS011;55298;-36.624;-64.282;2022-09-27T06:36:12;3.00;;;2.80;;
59972;SDS011;55298;-36.624;-64.282;2022-09-27T06:38:40;2.95;;;2.70;;
59972;SDS011;55298;-36.624;-64.282;2022-09-27T06:41:13;2.92;;;2.72;;
59972;SDS011;55298;-36.624;-64.282;2022-09-27T06:43:42;2.90;;;2.70;;
59972;SDS011;55298;-36.624;-64.282;2022-09-27T06:46:10;2.83;;;2.63;;
59972;SDS011;55298;-36.624;-64.282;2022-09-27T06:48:41;2.85;;;2.60;;
59972;SDS011;55298;-36.624;-64.282;2022-09-27T06:51:13;2.50;;;2.40;;
59972;SDS011;55298;-36.624;-64.282;2022-09-27T06:53:40;2.80;;;2.70;;
59972;SDS011;55298;-36.624;-64.282;2022-09-27T06:56:09;2.75;;;2.60;;
59972;SDS011;55298;-36.624;-64.282;2022-09-27T06:58:37;2.95;;;2.85;;
59972;SDS011;55298;-36.624;-64.282;2022-09-27T07:01:15;2.50;;;2.40;;
59972;SDS011;55298;-36.624;-64.282;2022-09-27T07:03:48;3.25;;;3.05;;
59972;SDS011;55298;-36.624;-64.282;2022-09-27T07:06:18;2.40;;;2.30;;
59972;SDS011;55298;-36.624;-64.282;2022-09-27T07:08:50;2.60;;;2.50;;
59972;SDS011;55298;-36.624;-64.282;2022-09-27T07:11:18;2.50;;;2.30;;
59972;SDS011;55298;-36.624;-64.282;2022-09-27T07:13:48;2.45;;;2.35;;
59972;SDS011;55298;-36.624;-64.282;2022-09-27T07:16:16;2.65;;;2.55;;
59972;SDS011;55298;-36.624;-64.282;2022-09-27T07:18:46;2.72;;;2.63;;
59972;SDS011;55298;-36.624;-64.282;2022-09-27T07:21:15;2.40;;;2.30;;
59972;SDS011;55298;-36.624;-64.282;2022-09-27T07:23:44;2.63;;;2.53;;
59972;SDS011;55298;-36.624;-64.282;2022-09-27T07:26:12;2.92;;;2.83;;
59972;SDS011;55298;-36.624;-64.282;2022-09-27T07:28:40;2.72;;;2.63;;
59972;SDS011;55298;-36.624;-64.282;2022-09-27T07:31:08;2.60;;;2.50;;
59972;SDS011;55298;-36.624;-64.282;2022-09-27T07:33:37;2.85;;;2.75;;
59972;SDS011;55298;-36.624;-64.282;2022-09-27T07:36:06;2.70;;;2.47;;
59972;SDS011;55298;-36.624;-64.282;2022-09-27T07:38:34;3.08;;;2.97;;
59972;SDS011;55298;-36.624;-64.282;2022-09-27T07:41:04;2.72;;;2.63;;
59972;SDS011;55298;-36.624;-64.282;2022-09-27T07:43:33;2.47;;;2.10;;
59972;SDS011;55298;-36.624;-64.282;2022-09-27T07:46:04;2.60;;;2.50;;
59972;SDS011;55298;-36.624;-64.282;2022-09-27T07:48:33;2.55;;;2.45;;
59972;SDS011;55298;-36.624;-64.282;2022-09-27T07:51:01;2.70;;;2.60;;
59972;SDS011;55298;-36.624;-64.282;2022-09-27T07:53:32;2.67;;;2.58;;
59972;SDS011;55298;-36.624;-64.282;2022-09-27T07:55:59;2.65;;;2.55;;
59972;SDS011;55298;-36.624;-64.282;2022-09-27T07:58:29;2.88;;;2.78;;
59972;SDS011;55298;-36.624;-64.282;2022-09-27T08:01:00;2.58;;;2.47;;
59972;SDS011;55298;-36.624;-64.282;2022-09-27T08:03:28;2.70;;;2.60;;
59972;SDS011;55298;-36.624;-64.282;2022-09-27T08:06:00;3.05;;;2.80;;
59972;SDS011;55298;-36.624;-64.282;2022-09-27T08:08:29;2.88;;;2.78;;
59972;SDS011;55298;-36.624;-64.282;2022-09-27T08:10:57;2.80;;;2.70;;
59972;SDS011;55298;-36.624;-64.282;2022-09-27T08:13:25;2.67;;;2.47;;
59972;SDS011;55298;-36.624;-64.282;2022-09-27T08:15:54;2.80;;;2.70;;
59972;SDS011;55298;-36.624;-64.282;2022-09-27T08:18:28;2.85;;;2.75;;
59972;SDS011;55298;-36.624;-64.282;2022-09-27T08:20:57;2.90;;;2.80;;
59972;SDS011;55298;-36.624;-64.282;2022-09-27T08:23:25;2.92;;;2.83;;
59972;SDS011;55298;-36.624;-64.282;2022-09-27T08:25:54;2.97;;;2.78;;
59972;SDS011;55298;-36.624;-64.282;2022-09-27T08:28:24;3.03;;;2.83;;
59972;SDS011;55298;-36.624;-64.282;2022-09-27T08:30:53;2.80;;;2.58;;
59972;SDS011;55298;-36.624;-64.282;2022-09-27T08:33:24;2.75;;;2.65;;
59972;SDS011;55298;-36.624;-64.282;2022-09-27T08:35:51;3.00;;;2.80;;
59972;SDS011;55298;-36.624;-64.282;2022-09-27T08:38:22;3.30;;;3.10;;
59972;SDS011;55298;-36.624;-64.282;2022-09-27T08:40:54;3.05;;;2.83;;
59972;SDS011;55298;-36.624;-64.282;2022-09-27T08:46:38;3.08;;;2.95;;
59972;SDS011;55298;-36.624;-64.282;2022-09-27T08:52:12;12.77;;;3.55;;
59972;SDS011;55298;-36.624;-64.282;2022-09-27T08:54:43;3.33;;;2.60;;
59972;SDS011;55298;-36.624;-64.282;2022-09-27T08:57:14;4.10;;;2.60;;
59972;SDS011;55298;-36.624;-64.282;2022-09-27T08:59:44;2.95;;;2.85;;
59972;SDS011;55298;-36.624;-64.282;2022-09-27T09:02:19;3.40;;;3.10;;
59972;SDS011;55298;-36.624;-64.282;2022-09-27T09:04:52;2.47;;;2.38;;
59972;SDS011;55298;-36.624;-64.282;2022-09-27T09:07:34;3.35;;;3.08;;
59972;SDS011;55298;-36.624;-64.282;2022-09-27T09:16:16;4.82;;;3.08;;
59972;SDS011;55298;-36.624;-64.282;2022-09-27T09:19:06;2.65;;;2.55;;
59972;SDS011;55298;-36.624;-64.282;2022-09-27T09:27:44;3.97;;;3.15;;
59972;SDS011;55298;-36.624;-64.282;2022-09-27T09:30:24;3.47;;;2.92;;
59972;SDS011;55298;-36.624;-64.282;2022-09-27T09:33:04;3.30;;;3.00;;
59972;SDS011;55298;-36.624;-64.282;2022-09-27T09:35:59;3.35;;;3.05;;
59972;SDS011;55298;-36.624;-64.282;2022-09-27T09:38:47;3.15;;;2.97;;
59972;SDS011;55298;-36.624;-64.282;2022-09-27T09:41:30;2.97;;;2.80;;
59972;SDS011;55298;-36.624;-64.282;2022-09-27T09:44:09;3.50;;;3.30;;
59972;SDS011;55298;-36.624;-64.282;2022-09-27T09:46:46;2.85;;;2.70;;
59972;SDS011;55298;-36.624;-64.282;2022-09-27T09:49:36;4.40;;;3.08;;
59972;SDS011;55298;-36.624;-64.282;2022-09-27T09:52:11;3.42;;;3.20;;
59972;SDS011;55298;-36.624;-64.282;2022-09-27T09:54:45;3.63;;;3.17;;
59972;SDS011;55298;-36.624;-64.282;2022-09-27T10:00:04;4.00;;;3.70;;
59972;SDS011;55298;-36.624;-64.282;2022-09-27T10:02:40;3.10;;;2.90;;
59972;SDS011;55298;-36.624;-64.282;2022-09-27T10:05:18;5.57;;;3.53;;
59972;SDS011;55298;-36.624;-64.282;2022-09-27T10:07:48;3.30;;;3.10;;
59972;SDS011;55298;-36.624;-64.282;2022-09-27T10:10:22;5.03;;;4.05;;
59972;SDS011;55298;-36.624;-64.282;2022-09-27T10:12:53;3.38;;;3.17;;
59972;SDS011;55298;-36.624;-64.282;2022-09-27T10:15:23;4.43;;;3.05;;
59972;SDS011;55298;-36.624;-64.282;2022-09-27T10:17:58;3.90;;;3.60;;
59972;SDS011;55298;-36.624;-64.282;2022-09-27T10:20:51;3.88;;;3.42;;
59972;SDS011;55298;-36.624;-64.282;2022-09-27T10:23:24;4.43;;;4.15;;
59972;SDS011;55298;-36.624;-64.282;2022-09-27T10:25:54;4.50;;;4.10;;
59972;SDS011;55298;-36.624;-64.282;2022-09-27T10:28:34;4.03;;;3.65;;
59972;SDS011;55298;-36.624;-64.282;2022-09-27T10:31:16;3.00;;;2.90;;
59972;SDS011;55298;-36.624;-64.282;2022-09-27T10:33:53;3.40;;;3.20;;
59972;SDS011;55298;-36.624;-64.282;2022-09-27T10:36:28;3.65;;;3.42;;
59972;SDS011;55298;-36.624;-64.282;2022-09-27T10:39:01;3.60;;;3.35;;
59972;SDS011;55298;-36.624;-64.282;2022-09-27T10:41:35;4.85;;;4.50;;
59972;SDS011;55298;-36.624;-64.282;2022-09-27T10:46:54;4.63;;;3.70;;
59972;SDS011;55298;-36.624;-64.282;2022-09-27T10:49:27;8.20;;;3.03;;
59972;SDS011;55298;-36.624;-64.282;2022-09-27T10:54:32;6.03;;;4.82;;
59972;SDS011;55298;-36.624;-64.282;2022-09-27T10:57:15;4.80;;;3.45;;
59972;SDS011;55298;-36.624;-64.282;2022-09-27T11:00:02;7.63;;;4.43;;
59972;SDS011;55298;-36.624;-64.282;2022-09-27T11:02:35;6.45;;;3.78;;
59972;SDS011;55298;-36.624;-64.282;2022-09-27T11:05:06;6.95;;;4.15;;
59972;SDS011;55298;-36.624;-64.282;2022-09-27T11:07:48;7.20;;;5.65;;
59972;SDS011;55298;-36.624;-64.282;2022-09-27T11:10:21;6.10;;;3.90;;
59972;SDS011;55298;-36.624;-64.282;2022-09-27T11:15:37;4.72;;;3.97;;
59972;SDS011;55298;-36.624;-64.282;2022-09-27T11:18:35;6.75;;;3.63;;
59972;SDS011;55298;-36.624;-64.282;2022-09-27T11:21:25;4.82;;;3.20;;
59972;SDS011;55298;-36.624;-64.282;2022-09-27T11:27:15;8.05;;;4.00;;
59972;SDS011;55298;-36.624;-64.282;2022-09-27T11:30:01;5.25;;;3.63;;
59972;SDS011;55298;-36.624;-64.282;2022-09-27T11:35:30;5.15;;;3.60;;
59972;SDS011;55298;-36.624;-64.282;2022-09-27T11:38:20;6.25;;;3.45;;
59972;SDS011;55298;-36.624;-64.282;2022-09-27T11:41:05;5.55;;;3.70;;
59972;SDS011;55298;-36.624;-64.282;2022-09-27T11:43:58;6.28;;;3.03;;
59972;SDS011;55298;-36.624;-64.282;2022-09-27T11:46:36;8.30;;;3.20;;
59972;SDS011;55298;-36.624;-64.282;2022-09-27T11:49:11;10.77;;;4.10;;
59972;SDS011;55298;-36.624;-64.282;2022-09-27T11:57:41;10.00;;;3.10;;
59972;SDS011;55298;-36.624;-64.282;2022-09-27T12:00:35;9.98;;;3.17;;
59972;SDS011;55298;-36.624;-64.282;2022-09-27T12:09:08;15.25;;;3.45;;
59972;SDS011;55298;-36.624;-64.282;2022-09-27T12:11:47;11.85;;;3.30;;
59972;SDS011;55298;-36.624;-64.282;2022-09-27T12:17:09;9.27;;;3.23;;
59972;SDS011;55298;-36.624;-64.282;2022-09-27T12:19:48;11.00;;;3.10;;
59972;SDS011;55298;-36.624;-64.282;2022-09-27T12:25:04;12.40;;;3.45;;
59972;SDS011;55298;-36.624;-64.282;2022-09-27T12:27:39;20.45;;;4.03;;
59972;SDS011;55298;-36.624;-64.282;2022-09-27T12:30:13;10.13;;;3.30;;
59972;SDS011;55298;-36.624;-64.282;2022-09-27T12:32:51;13.07;;;3.78;;
59972;SDS011;55298;-36.624;-64.282;2022-09-27T12:35:40;16.23;;;3.88;;
59972;SDS011;55298;-36.624;-64.282;2022-09-27T12:38:18;14.45;;;4.07;;
59972;SDS011;55298;-36.624;-64.282;2022-09-27T12:41:06;23.27;;;3.95;;
59972;SDS011;55298;-36.624;-64.282;2022-09-27T12:43:37;17.02;;;3.80;;
59972;SDS011;55298;-36.624;-64.282;2022-09-27T12:52:14;24.58;;;4.68;;
59972;SDS011;55298;-36.624;-64.282;2022-09-27T12:55:03;15.00;;;3.17;;
59972;SDS011;55298;-36.624;-64.282;2022-09-27T12:58:47;13.75;;;3.58;;
59972;SDS011;55298;-36.624;-64.282;2022-09-27T13:01:06;14.98;;;3.50;;
59972;SDS011;55298;-36.624;-64.282;2022-09-27T13:06:43;15.65;;;3.78;;
59972;SDS011;55298;-36.624;-64.282;2022-09-27T13:09:25;15.75;;;3.53;;
59972;SDS011;55298;-36.624;-64.282;2022-09-27T13:12:17;15.18;;;3.70;;
59972;SDS011;55298;-36.624;-64.282;2022-09-27T13:17:50;17.87;;;4.10;;
59972;SDS011;55298;-36.624;-64.282;2022-09-27T13:29:21;17.17;;;3.92;;
59972;SDS011;55298;-36.624;-64.282;2022-09-27T13:34:42;12.55;;;3.10;;
59972;SDS011;55298;-36.624;-64.282;2022-09-27T13:37:35;18.45;;;3.90;;
59972;SDS011;55298;-36.624;-64.282;2022-09-27T13:40:25;11.10;;;2.55;;
59972;SDS011;55298;-36.624;-64.282;2022-09-27T13:45:51;11.60;;;2.90;;
59972;SDS011;55298;-36.624;-64.282;2022-09-27T14:00:07;21.48;;;8.05;;
59972;SDS011;55298;-36.624;-64.282;2022-09-27T14:05:50;10.10;;;2.63;;
59972;SDS011;55298;-36.624;-64.282;2022-09-27T14:08:32;14.23;;;2.88;;
59972;SDS011;55298;-36.624;-64.282;2022-09-27T14:11:13;11.98;;;2.30;;
59972;SDS011;55298;-36.624;-64.282;2022-09-27T14:13:46;12.38;;;2.60;;
59972;SDS011;55298;-36.624;-64.282;2022-09-27T14:16:15;13.98;;;3.20;;
59972;SDS011;55298;-36.624;-64.282;2022-09-27T14:18:47;14.63;;;3.35;;
59972;SDS011;55298;-36.624;-64.282;2022-09-27T14:21:24;12.53;;;3.00;;
59972;SDS011;55298;-36.624;-64.282;2022-09-27T14:26:46;14.00;;;3.30;;
59972;SDS011;55298;-36.624;-64.282;2022-09-27T14:29:18;13.75;;;2.95;;
59972;SDS011;55298;-36.624;-64.282;2022-09-27T14:32:10;12.18;;;2.97;;
59972;SDS011;55298;-36.624;-64.282;2022-09-27T14:34:39;14.50;;;2.60;;
59972;SDS011;55298;-36.624;-64.282;2022-09-27T14:43:19;11.13;;;2.40;;
59972;SDS011;55298;-36.624;-64.282;2022-09-27T14:45:50;17.45;;;3.05;;
59972;SDS011;55298;-36.624;-64.282;2022-09-27T14:48:28;14.60;;;2.65;;
59972;SDS011;55298;-36.624;-64.282;2022-09-27T14:51:00;9.13;;;3.05;;
59972;SDS011;55298;-36.624;-64.282;2022-09-27T14:53:39;12.20;;;3.33;;
59972;SDS011;55298;-36.624;-64.282;2022-09-27T14:56:14;7.07;;;2.60;;
59972;SDS011;55298;-36.624;-64.282;2022-09-27T14:58:48;7.80;;;2.53;;
59972;SDS011;55298;-36.624;-64.282;2022-09-27T15:01:27;12.70;;;2.83;;
59972;SDS011;55298;-36.624;-64.282;2022-09-27T15:04:07;10.35;;;2.85;;
59972;SDS011;55298;-36.624;-64.282;2022-09-27T15:06:40;8.80;;;2.70;;
59972;SDS011;55298;-36.624;-64.282;2022-09-27T15:09:10;9.60;;;2.67;;
59972;SDS011;55298;-36.624;-64.282;2022-09-27T15:11:41;8.15;;;2.90;;
59972;SDS011;55298;-36.624;-64.282;2022-09-27T15:14:25;11.38;;;3.20;;
59972;SDS011;55298;-36.624;-64.282;2022-09-27T15:16:57;13.30;;;3.58;;
59972;SDS011;55298;-36.624;-64.282;2022-09-27T15:19:30;8.40;;;2.22;;
59972;SDS011;55298;-36.624;-64.282;2022-09-27T15:25:02;12.63;;;2.50;;
59972;SDS011;55298;-36.624;-64.282;2022-09-27T15:27:34;7.63;;;2.33;;
59972;SDS011;55298;-36.624;-64.282;2022-09-27T15:30:03;13.10;;;2.20;;
59972;SDS011;55298;-36.624;-64.282;2022-09-27T15:32:35;16.38;;;2.80;;
59972;SDS011;55298;-36.624;-64.282;2022-09-27T15:35:06;7.70;;;2.88;;
59972;SDS011;55298;-36.624;-64.282;2022-09-27T15:37:35;8.65;;;2.10;;
59972;SDS011;55298;-36.624;-64.282;2022-09-27T15:40:54;11.43;;;2.85;;
59972;SDS011;55298;-36.624;-64.282;2022-09-27T15:43:12;6.35;;;2.20;;
59972;SDS011;55298;-36.624;-64.282;2022-09-27T15:45:48;11.43;;;2.47;;
59972;SDS011;55298;-36.624;-64.282;2022-09-27T15:48:19;9.20;;;2.17;;
59972;SDS011;55298;-36.624;-64.282;2022-09-27T15:50:47;11.73;;;2.53;;
59972;SDS011;55298;-36.624;-64.282;2022-09-27T15:56:14;6.13;;;2.30;;
59972;SDS011;55298;-36.624;-64.282;2022-09-27T15:58:45;10.23;;;2.45;;
59972;SDS011;55298;-36.624;-64.282;2022-09-27T16:01:16;13.75;;;2.83;;
59972;SDS011;55298;-36.624;-64.282;2022-09-27T16:03:46;7.18;;;2.13;;
59972;SDS011;55298;-36.624;-64.282;2022-09-27T16:06:20;6.07;;;2.20;;
59972;SDS011;55298;-36.624;-64.282;2022-09-27T16:08:53;8.63;;;2.20;;
59972;SDS011;55298;-36.624;-64.282;2022-09-27T16:11:23;11.32;;;2.35;;
59972;SDS011;55298;-36.624;-64.282;2022-09-27T16:13:50;13.95;;;2.95;;
59972;SDS011;55298;-36.624;-64.282;2022-09-27T16:16:19;9.52;;;2.28;;
59972;SDS011;55298;-36.624;-64.282;2022-09-27T16:18:48;11.10;;;2.53;;
59972;SDS011;55298;-36.624;-64.282;2022-09-27T16:21:17;5.55;;;2.33;;
59972;SDS011;55298;-36.624;-64.282;2022-09-27T16:23:46;10.35;;;2.55;;
59972;SDS011;55298;-36.624;-64.282;2022-09-27T16:26:15;8.50;;;2.17;;
59972;SDS011;55298;-36.624;-64.282;2022-09-27T16:28:53;6.75;;;2.00;;
59972;SDS011;55298;-36.624;-64.282;2022-09-27T16:31:22;8.10;;;2.38;;
59972;SDS011;55298;-36.624;-64.282;2022-09-27T16:34:08;8.75;;;2.20;;
59972;SDS011;55298;-36.624;-64.282;2022-09-27T16:36:36;8.95;;;2.97;;
59972;SDS011;55298;-36.624;-64.282;2022-09-27T16:39:05;8.40;;;2.72;;
59972;SDS011;55298;-36.624;-64.282;2022-09-27T16:41:37;10.07;;;2.20;;
59972;SDS011;55298;-36.624;-64.282;2022-09-27T16:44:07;8.95;;;2.20;;
59972;SDS011;55298;-36.624;-64.282;2022-09-27T16:46:40;7.85;;;2.50;;
59972;SDS011;55298;-36.624;-64.282;2022-09-27T16:49:11;11.93;;;2.85;;
59972;SDS011;55298;-36.624;-64.282;2022-09-27T16:51:49;5.47;;;2.95;;
59972;SDS011;55298;-36.624;-64.282;2022-09-27T16:54:26;8.63;;;1.90;;
59972;SDS011;55298;-36.624;-64.282;2022-09-27T16:56:57;8.65;;;3.35;;
59972;SDS011;55298;-36.624;-64.282;2022-09-27T16:59:25;8.05;;;2.30;;
59972;SDS011;55298;-36.624;-64.282;2022-09-27T17:01:54;4.97;;;1.90;;
59972;SDS011;55298;-36.624;-64.282;2022-09-27T17:04:24;5.43;;;2.08;;
59972;SDS011;55298;-36.624;-64.282;2022-09-27T17:06:54;10.35;;;1.95;;
59972;SDS011;55298;-36.624;-64.282;2022-09-27T17:09:25;5.10;;;2.00;;